createdAt,value
2019-01-25T00:00:22.804Z,29.27
2019-01-25T00:02:51.184Z,27.70
2019-01-25T00:05:19.954Z,30.97
2019-01-25T00:07:51.766Z,29.07
2019-01-25T00:10:20.409Z,23.87
2019-01-25T00:12:50.444Z,22.43
2019-01-25T00:15:19.576Z,20.80
2019-01-25T00:17:50.892Z,21.13
2019-01-25T00:20:23.909Z,22.43
2019-01-25T00:22:55.257Z,22.27
2019-01-25T00:25:26.168Z,21.07
2019-01-25T00:27:54.573Z,22.77
2019-01-25T00:30:25.998Z,22.60
2019-01-25T00:33:12.656Z,21.60
2019-01-25T00:35:49.173Z,22.67
2019-01-25T00:38:20.240Z,23.00
2019-01-25T00:40:54.694Z,22.43
2019-01-25T00:43:28.637Z,23.23
2019-01-25T00:46:00.284Z,23.60
2019-01-25T00:48:30.217Z,22.13
2019-01-25T00:51:01.594Z,22.33
2019-01-25T00:53:29.985Z,24.10
2019-01-25T00:56:03.828Z,23.20
2019-01-25T00:58:35.279Z,23.50
2019-01-25T01:01:09.156Z,23.73
2019-01-25T01:03:43.268Z,22.63
2019-01-25T01:06:17.884Z,22.97
2019-01-25T01:08:46.300Z,24.70
2019-01-25T01:11:22.305Z,22.97
2019-01-25T01:13:56.066Z,23.70
2019-01-25T01:16:27.376Z,24.57
2019-01-25T01:18:58.862Z,24.97
2019-01-25T01:21:30.549Z,24.63
2019-01-25T01:24:03.769Z,26.67
2019-01-25T01:26:32.157Z,26.40
2019-01-25T01:29:12.902Z,24.90
2019-01-25T01:31:43.972Z,25.00
2019-01-25T01:34:12.379Z,26.57
2019-01-25T01:36:43.759Z,25.73
2019-01-25T01:39:15.069Z,22.27
2019-01-25T01:41:49.012Z,26.40
2019-01-25T01:44:27.256Z,26.53
2019-01-25T01:46:55.655Z,25.50
2019-01-25T01:49:27.001Z,25.70
2019-01-25T01:51:58.347Z,23.60
2019-01-25T01:54:26.759Z,25.40
2019-01-25T01:56:58.345Z,27.27
2019-01-25T01:59:29.392Z,26.20
2019-01-25T02:02:00.997Z,26.23
2019-01-25T02:04:32.686Z,25.93
2019-01-25T02:07:04.408Z,25.67
2019-01-25T02:09:32.812Z,27.23
2019-01-25T02:12:01.201Z,25.83
2019-01-25T02:14:31.493Z,26.53
2019-01-25T02:17:00.530Z,25.47
2019-01-25T02:19:28.922Z,23.93
2019-01-25T02:21:58.859Z,24.13
2019-01-25T02:24:27.253Z,24.67
2019-01-25T02:26:57.292Z,23.30
2019-01-25T02:29:33.229Z,26.07
2019-01-25T02:32:02.719Z,23.17
2019-01-25T02:34:39.285Z,25.10
2019-01-25T02:37:07.684Z,24.67
2019-01-25T02:39:40.621Z,25.27
2019-01-25T02:42:10.696Z,24.77
2019-01-25T02:44:42.849Z,22.10
2019-01-25T02:47:11.237Z,24.17
2019-01-25T02:49:39.633Z,24.17
2019-01-25T02:52:13.881Z,24.50
2019-01-25T02:54:42.284Z,24.63
2019-01-25T02:57:23.990Z,24.73
2019-01-25T02:59:54.338Z,24.03
2019-01-25T03:02:28.768Z,23.17
2019-01-25T03:05:00.376Z,22.27
2019-01-25T03:07:34.579Z,24.00
2019-01-25T03:10:05.196Z,23.37
2019-01-25T03:12:45.448Z,23.13
2019-01-25T03:15:19.230Z,23.80
2019-01-25T03:17:50.548Z,23.83
2019-01-25T03:20:21.509Z,24.50
2019-01-25T03:22:50.678Z,25.50
2019-01-25T03:25:25.306Z,24.57
2019-01-25T03:28:05.405Z,25.10
2019-01-25T03:30:33.809Z,24.70
2019-01-25T03:33:02.201Z,25.97
2019-01-25T03:35:34.996Z,25.43
2019-01-25T03:38:18.081Z,25.40
2019-01-25T03:40:55.256Z,25.67
2019-01-25T03:43:25.408Z,26.47
2019-01-25T03:45:55.476Z,26.70
2019-01-25T03:48:34.505Z,27.50
2019-01-25T03:51:03.171Z,25.97
2019-01-25T03:53:43.426Z,25.77
2019-01-25T03:56:11.980Z,26.80
2019-01-25T03:58:49.022Z,25.97
2019-01-25T04:01:22.594Z,27.53
2019-01-25T04:03:48.713Z,26.10
2019-01-25T04:06:17.117Z,25.63
2019-01-25T04:08:47.146Z,25.83
2019-01-25T04:11:18.520Z,25.90
2019-01-25T04:13:50.078Z,26.90
2019-01-25T04:16:20.363Z,25.87
2019-01-25T04:18:51.411Z,25.10
2019-01-25T04:21:22.849Z,26.17
2019-01-25T04:23:54.072Z,26.13
2019-01-25T04:26:26.738Z,27.40
2019-01-25T04:29:00.560Z,27.60
2019-01-25T04:31:30.846Z,25.10
2019-01-25T04:33:59.249Z,27.37
2019-01-25T04:36:29.279Z,27.63
2019-01-25T04:38:57.681Z,26.50
2019-01-25T04:41:28.772Z,26.47
2019-01-25T04:43:57.250Z,27.07
2019-01-25T04:46:31.575Z,26.60
2019-01-25T04:49:05.680Z,26.20
2019-01-25T04:51:42.728Z,27.43
2019-01-25T04:54:20.021Z,26.67
2019-01-25T04:56:54.256Z,27.50
2019-01-25T04:59:26.706Z,28.43
2019-01-25T05:01:55.103Z,25.47
2019-01-25T05:04:23.502Z,27.00
2019-01-25T05:06:54.985Z,27.30
2019-01-25T05:09:25.017Z,28.60
2019-01-25T05:11:56.389Z,27.13
2019-01-25T05:14:27.845Z,26.73
2019-01-25T05:16:57.881Z,27.73
2019-01-25T05:19:26.514Z,26.90
2019-01-25T05:22:00.824Z,26.27
2019-01-25T05:24:29.215Z,26.67
2019-01-25T05:26:59.154Z,26.70
2019-01-25T05:29:47.100Z,27.43
2019-01-25T05:32:15.538Z,28.67
2019-01-25T05:34:43.926Z,29.27
2019-01-25T05:37:14.129Z,28.87
2019-01-25T05:39:42.587Z,29.53
2019-01-25T05:42:13.912Z,28.40
2019-01-25T05:44:42.320Z,29.93
2019-01-25T05:47:18.370Z,29.27
2019-01-25T05:49:47.624Z,28.50
2019-01-25T05:52:22.605Z,28.40
2019-01-25T05:55:06.298Z,30.00
2019-01-25T05:57:35.277Z,28.27
2019-01-25T06:00:13.675Z,29.60
2019-01-25T06:02:48.026Z,27.70
2019-01-25T06:05:19.361Z,29.93
2019-01-25T06:07:47.997Z,29.60
2019-01-25T06:10:17.789Z,32.03
2019-01-25T06:12:51.973Z,30.33
2019-01-25T06:15:20.369Z,29.20
2019-01-25T06:17:49.646Z,29.87
2019-01-25T06:20:19.004Z,28.97
2019-01-25T06:22:47.461Z,31.73
2019-01-25T06:25:15.846Z,32.03
2019-01-25T06:27:44.485Z,31.70
2019-01-25T06:30:21.738Z,29.03
2019-01-25T06:32:53.082Z,30.87
2019-01-25T06:35:26.024Z,29.63
2019-01-25T06:38:05.414Z,32.20
2019-01-25T06:40:36.590Z,29.97
2019-01-25T06:43:07.780Z,30.93
2019-01-25T06:45:39.137Z,32.00
2019-01-25T06:48:11.787Z,31.20
2019-01-25T06:50:43.102Z,31.67
2019-01-25T06:53:14.464Z,31.70
2019-01-25T06:55:42.865Z,32.60
2019-01-25T06:58:13.563Z,31.43
2019-01-25T07:00:49.088Z,32.10
2019-01-25T07:03:28.982Z,31.83
2019-01-25T07:06:03.122Z,32.90
2019-01-25T07:08:31.519Z,31.50
2019-01-25T07:11:12.396Z,33.20
2019-01-25T07:13:40.795Z,32.80
2019-01-25T07:16:09.232Z,31.60
2019-01-25T07:18:37.625Z,31.37
2019-01-25T07:21:08.341Z,32.53
2019-01-25T07:23:38.033Z,32.87
2019-01-25T07:26:07.927Z,31.40
2019-01-25T07:28:39.033Z,31.83
2019-01-25T07:31:11.831Z,31.63
2019-01-25T07:33:41.161Z,31.97
2019-01-25T07:36:09.557Z,31.70
2019-01-25T07:38:41.224Z,32.17
2019-01-25T07:41:09.866Z,31.73
2019-01-25T07:43:38.645Z,30.80
2019-01-25T07:46:09.751Z,31.63
2019-01-25T07:48:38.652Z,32.23
2019-01-25T07:51:09.689Z,30.20
2019-01-25T07:53:38.091Z,32.23
2019-01-25T07:56:06.564Z,32.90
2019-01-25T07:58:34.979Z,31.77
2019-01-25T08:01:04.926Z,30.20
2019-01-25T08:03:38.745Z,32.57
2019-01-25T08:06:11.473Z,32.53
2019-01-25T08:08:40.109Z,31.17
2019-01-25T08:11:08.525Z,32.47
2019-01-25T08:13:39.565Z,30.87
2019-01-25T08:16:14.251Z,32.17
2019-01-25T08:18:45.738Z,30.97
2019-01-25T08:21:14.757Z,31.50
2019-01-25T08:23:44.871Z,32.27
2019-01-25T08:26:20.721Z,31.10
2019-01-25T08:28:49.137Z,32.10
2019-01-25T08:31:17.513Z,31.07
2019-01-25T08:33:48.980Z,32.87
2019-01-25T08:36:20.216Z,31.90
2019-01-25T08:38:48.689Z,31.57
2019-01-25T08:41:17.089Z,32.73
2019-01-25T08:43:48.426Z,30.57
2019-01-25T08:46:19.521Z,33.23
2019-01-25T08:48:47.921Z,32.43
2019-01-25T08:51:16.381Z,33.33
2019-01-25T08:53:44.850Z,33.17
2019-01-25T08:56:13.810Z,34.83
2019-01-25T08:58:42.440Z,35.07
2019-01-25T09:01:10.897Z,34.23
2019-01-25T09:03:40.738Z,34.37
2019-01-25T09:06:09.100Z,34.47
2019-01-25T09:08:37.760Z,35.93
2019-01-25T09:11:09.292Z,35.70
2019-01-25T09:13:43.440Z,35.20
2019-01-25T09:16:11.829Z,35.83
2019-01-25T09:18:40.223Z,36.20
2019-01-25T09:21:11.317Z,36.00
2019-01-25T09:23:57.763Z,35.37
2019-01-25T09:26:26.156Z,35.07
2019-01-25T09:28:57.640Z,35.93
2019-01-25T09:31:32.109Z,34.83
2019-01-25T09:34:09.841Z,33.80
2019-01-25T09:36:44.159Z,34.10
2019-01-25T09:39:17.048Z,37.33
2019-01-25T09:41:48.382Z,34.40
2019-01-25T09:44:22.589Z,38.30
2019-01-25T09:46:54.401Z,36.43
2019-01-25T09:49:28.741Z,34.60
2019-01-25T09:51:57.196Z,37.60
2019-01-25T09:54:25.663Z,34.67
2019-01-25T09:56:54.310Z,36.07
2019-01-25T09:59:25.473Z,36.27
2019-01-25T10:01:56.731Z,34.77
2019-01-25T10:04:25.384Z,35.40
2019-01-25T10:06:54.018Z,35.63
2019-01-25T10:09:24.056Z,34.97
2019-01-25T10:11:55.353Z,36.73
2019-01-25T10:14:23.752Z,37.33
2019-01-25T10:16:52.146Z,35.33
2019-01-25T10:19:22.619Z,36.67
2019-01-25T10:21:51.037Z,37.57
2019-01-25T10:24:19.424Z,35.83
2019-01-25T10:26:49.164Z,36.20
2019-01-25T10:29:25.877Z,37.67
2019-01-25T10:31:58.173Z,36.43
2019-01-25T10:34:26.809Z,37.30
2019-01-25T10:36:58.169Z,36.73
2019-01-25T10:39:29.523Z,37.63
2019-01-25T10:41:57.937Z,36.13
2019-01-25T10:44:29.286Z,36.00
2019-01-25T10:47:01.913Z,36.47
2019-01-25T10:49:33.456Z,36.97
2019-01-25T10:52:04.982Z,36.27
2019-01-25T10:54:35.018Z,36.97
2019-01-25T10:57:03.473Z,35.57
2019-01-25T10:59:43.712Z,36.60
2019-01-25T11:02:19.322Z,35.27
2019-01-25T11:04:47.719Z,36.43
2019-01-25T11:07:16.981Z,35.87
2019-01-25T11:09:47.326Z,36.13
2019-01-25T11:12:21.721Z,35.70
2019-01-25T11:14:50.125Z,36.37
2019-01-25T11:17:18.530Z,36.77
2019-01-25T11:19:49.190Z,37.07
2019-01-25T11:22:23.111Z,37.33
2019-01-25T11:24:53.032Z,36.37
2019-01-25T11:27:21.428Z,37.87
2019-01-25T11:29:51.482Z,37.73
2019-01-25T11:32:25.517Z,35.67
2019-01-25T11:34:57.980Z,37.27
2019-01-25T11:37:26.376Z,38.57
2019-01-25T11:39:57.471Z,35.60
2019-01-25T11:42:25.875Z,39.37
2019-01-25T11:44:54.524Z,37.03
2019-01-25T11:47:23.590Z,38.07
2019-01-25T11:50:00.936Z,36.83
2019-01-25T11:52:29.329Z,38.23
2019-01-25T11:54:59.590Z,36.00
2019-01-25T11:57:29.105Z,37.60
2019-01-25T12:00:02.974Z,37.63
2019-01-25T12:02:34.082Z,37.40
2019-01-25T12:05:02.471Z,38.50
2019-01-25T12:07:31.033Z,37.43
2019-01-25T12:09:59.453Z,37.20
2019-01-25T12:12:27.852Z,37.17
2019-01-25T12:14:58.753Z,37.07
2019-01-25T12:17:27.159Z,38.03
2019-01-25T12:19:55.553Z,36.90
2019-01-25T12:22:23.972Z,36.63
2019-01-25T12:24:58.690Z,37.00
2019-01-25T12:27:27.073Z,37.07
2019-01-25T12:29:58.982Z,37.30
2019-01-25T12:32:32.074Z,37.30
2019-01-25T12:35:01.777Z,35.37
2019-01-25T12:37:30.969Z,36.33
2019-01-25T12:39:59.369Z,34.27
2019-01-25T12:42:27.760Z,35.13
2019-01-25T12:44:56.462Z,33.70
2019-01-25T12:47:24.862Z,37.37
2019-01-25T12:49:53.248Z,36.17
2019-01-25T12:52:25.161Z,34.93
2019-01-25T12:54:53.803Z,35.97
2019-01-25T12:57:22.261Z,36.67
2019-01-25T12:59:50.673Z,35.10
2019-01-25T13:02:21.977Z,33.33
2019-01-25T13:04:53.312Z,33.87
2019-01-25T13:07:21.953Z,33.93
2019-01-25T13:09:53.494Z,35.93
2019-01-25T13:12:25.204Z,33.27
2019-01-25T13:14:51.993Z,35.07
2019-01-25T13:17:23.608Z,32.57
2019-01-25T13:19:52.064Z,32.23
2019-01-25T13:22:20.448Z,32.20
2019-01-25T13:24:54.806Z,32.87
2019-01-25T13:27:23.199Z,32.13
2019-01-25T13:29:57.753Z,32.00
2019-01-25T13:32:26.973Z,30.23
2019-01-25T13:34:58.350Z,31.80
2019-01-25T13:37:31.504Z,30.87
2019-01-25T13:40:01.426Z,29.93
2019-01-25T13:42:32.706Z,30.27
2019-01-25T13:45:06.707Z,31.80
2019-01-25T13:47:37.796Z,32.43
2019-01-25T13:50:09.602Z,30.90
2019-01-25T13:52:41.834Z,31.87
2019-01-25T13:55:13.353Z,31.57
2019-01-25T13:57:42.505Z,29.70
2019-01-25T14:00:16.657Z,29.70
2019-01-25T14:02:45.047Z,28.30
2019-01-25T14:05:13.625Z,28.90
2019-01-25T14:07:42.385Z,29.00
2019-01-25T14:10:13.856Z,27.93
2019-01-25T14:13:04.660Z,28.23
2019-01-25T14:15:33.895Z,23.57
2019-01-25T14:18:04.701Z,23.80
2019-01-25T14:20:34.633Z,25.17
2019-01-25T14:23:04.734Z,23.73
2019-01-25T14:25:38.513Z,18.80
2019-01-25T14:28:07.936Z,18.53
2019-01-25T14:30:43.672Z,15.43
2019-01-25T14:33:12.072Z,11.67
2019-01-25T14:35:40.446Z,9.07
2019-01-25T14:38:10.464Z,7.77
2019-01-25T14:40:39.649Z,7.03
2019-01-25T14:43:08.042Z,7.43
2019-01-25T14:45:39.368Z,7.00
2019-01-25T14:48:08.639Z,6.90
2019-01-25T14:50:37.032Z,7.43
2019-01-25T14:53:06.556Z,8.07
2019-01-25T14:55:44.142Z,8.10
2019-01-25T14:58:14.158Z,7.83
2019-01-25T15:00:45.230Z,8.40
2019-01-25T15:03:13.639Z,8.37
2019-01-25T15:05:42.032Z,8.77
2019-01-25T15:08:10.415Z,8.27
2019-01-25T15:10:39.038Z,9.23
2019-01-25T15:13:12.209Z,9.83
2019-01-25T15:15:40.665Z,9.93
2019-01-25T15:18:11.541Z,9.83
2019-01-25T15:20:39.939Z,10.77
2019-01-25T15:23:08.489Z,10.40
2019-01-25T15:25:36.949Z,10.67
2019-01-25T15:28:26.373Z,12.37
2019-01-25T15:30:54.772Z,12.37
2019-01-25T15:33:25.166Z,12.87
2019-01-25T15:35:53.557Z,12.93
2019-01-25T15:38:21.962Z,13.30
2019-01-25T15:40:51.902Z,13.17
2019-01-25T15:43:20.296Z,13.33
2019-01-25T15:45:54.689Z,12.77
2019-01-25T15:48:23.085Z,12.37
2019-01-25T15:50:54.504Z,13.60
2019-01-25T15:53:29.668Z,13.40
2019-01-25T15:56:00.469Z,12.03
2019-01-25T15:58:35.282Z,12.43
2019-01-25T16:01:03.671Z,11.13
2019-01-25T16:03:35.202Z,11.53
2019-01-25T16:06:04.473Z,10.30
2019-01-25T16:08:32.856Z,9.70
2019-01-25T16:11:02.265Z,10.13
2019-01-25T16:13:33.681Z,9.60
2019-01-25T16:16:03.775Z,10.10
2019-01-25T16:18:32.174Z,10.13
2019-01-25T16:21:01.271Z,10.67
2019-01-25T16:23:29.658Z,10.50
2019-01-25T16:25:59.676Z,10.07
2019-01-25T16:28:31.033Z,9.67
2019-01-25T16:31:02.072Z,10.30
2019-01-25T16:33:32.005Z,14.20
2019-01-25T16:36:00.393Z,15.73
2019-01-25T16:38:28.781Z,17.47
2019-01-25T16:41:00.125Z,17.30
2019-01-25T16:43:31.661Z,18.70
2019-01-25T16:46:00.065Z,19.97
2019-01-25T16:48:37.340Z,19.73
2019-01-25T16:51:08.724Z,20.17
2019-01-25T16:53:38.746Z,19.80
2019-01-25T16:56:07.414Z,20.40
2019-01-25T16:58:38.972Z,20.97
2019-01-25T17:01:13.037Z,20.30
2019-01-25T17:03:41.424Z,20.90
2019-01-25T17:06:11.526Z,19.90
2019-01-25T17:08:42.577Z,19.77
2019-01-25T17:11:15.414Z,19.63
2019-01-25T17:13:47.024Z,20.10
2019-01-25T17:16:15.452Z,20.27
2019-01-25T17:18:50.770Z,20.47
2019-01-25T17:21:19.128Z,20.50
2019-01-25T17:23:50.696Z,19.43
2019-01-25T17:26:19.076Z,19.07
2019-01-25T17:28:47.474Z,19.03
2019-01-25T17:31:15.882Z,18.47
2019-01-25T17:33:44.285Z,19.97
2019-01-25T17:36:15.405Z,18.77
2019-01-25T17:38:43.786Z,17.40
2019-01-25T17:41:12.417Z,19.20
2019-01-25T17:43:43.555Z,18.10
2019-01-25T17:46:13.591Z,18.30
2019-01-25T17:48:42.213Z,18.97
2019-01-25T17:51:10.867Z,19.00
2019-01-25T17:53:40.036Z,20.13
2019-01-25T17:56:09.012Z,19.10
2019-01-25T17:58:39.055Z,21.17
2019-01-25T18:01:07.453Z,21.80
2019-01-25T18:03:38.749Z,20.53
2019-01-25T18:06:08.788Z,22.33
2019-01-25T18:08:37.191Z,22.47
2019-01-25T18:11:07.212Z,21.67
2019-01-25T18:13:37.248Z,22.60
2019-01-25T18:16:06.365Z,22.27
2019-01-25T18:18:34.760Z,20.90
2019-01-25T18:21:03.404Z,22.93
2019-01-25T18:23:31.784Z,22.27
2019-01-25T18:26:00.430Z,23.37
2019-01-25T18:28:34.906Z,23.00
2019-01-25T18:31:15.635Z,21.77
2019-01-25T18:33:46.708Z,23.33
2019-01-25T18:36:17.896Z,22.67
2019-01-25T18:38:46.388Z,21.87
2019-01-25T18:41:16.490Z,23.03
2019-01-25T18:43:47.988Z,24.57
2019-01-25T18:46:16.382Z,23.63
2019-01-25T18:48:49.514Z,23.53
2019-01-25T18:51:17.902Z,24.80
2019-01-25T18:53:46.316Z,24.27
2019-01-25T18:56:16.340Z,23.33
2019-01-25T18:58:45.530Z,23.07
2019-01-25T19:01:16.838Z,24.13
2019-01-25T19:03:45.252Z,24.80
2019-01-25T19:06:17.409Z,23.60
2019-01-25T19:08:50.528Z,24.67
2019-01-25T19:11:18.926Z,24.37
2019-01-25T19:13:47.321Z,22.80
2019-01-25T19:16:15.724Z,24.73
2019-01-25T19:18:47.172Z,23.20
2019-01-25T19:21:15.756Z,24.73
2019-01-25T19:23:50.099Z,24.80
2019-01-25T19:26:23.869Z,23.57
2019-01-25T19:28:55.209Z,23.50
2019-01-25T19:31:23.601Z,24.63
2019-01-25T19:33:59.601Z,24.33
2019-01-25T19:36:28.494Z,22.77
2019-01-25T19:38:59.640Z,23.20
2019-01-25T19:41:30.617Z,23.60
2019-01-25T19:44:02.009Z,23.93
2019-01-25T19:46:33.590Z,24.07
2019-01-25T19:49:03.626Z,25.23
2019-01-25T19:51:33.569Z,25.93
2019-01-25T19:54:01.906Z,24.27
2019-01-25T19:56:35.770Z,23.57
2019-01-25T19:59:06.209Z,24.37
2019-01-25T20:01:37.308Z,25.07
2019-01-25T20:04:08.898Z,25.17
2019-01-25T20:06:45.857Z,26.17
2019-01-25T20:09:20.453Z,25.73
2019-01-25T20:11:50.197Z,26.13
2019-01-25T20:14:21.676Z,25.83
2019-01-25T20:16:50.073Z,26.30
2019-01-25T20:19:21.653Z,27.87
2019-01-25T20:21:50.123Z,26.63
2019-01-25T20:24:28.338Z,26.93
2019-01-25T20:27:00.433Z,26.60
2019-01-25T20:29:34.828Z,27.03
2019-01-25T20:32:06.465Z,27.30
2019-01-25T20:34:38.993Z,27.23
2019-01-25T20:37:12.298Z,26.27
2019-01-25T20:39:40.693Z,26.20
2019-01-25T20:42:09.328Z,27.03
2019-01-25T20:44:42.190Z,25.33
2019-01-25T20:47:10.559Z,27.23
2019-01-25T20:49:39.221Z,27.97
2019-01-25T20:52:07.680Z,28.47
2019-01-25T20:54:36.082Z,27.10
2019-01-25T20:57:09.390Z,28.00
2019-01-25T20:59:38.061Z,28.53
2019-01-25T21:02:07.890Z,29.13
2019-01-25T21:04:36.309Z,29.97
2019-01-25T21:07:10.913Z,28.33
2019-01-25T21:09:42.082Z,29.13
2019-01-25T21:12:10.488Z,29.23
2019-01-25T21:14:43.113Z,29.50
2019-01-25T21:17:11.506Z,30.93
2019-01-25T21:19:39.977Z,29.03
2019-01-25T21:22:08.355Z,31.83
2019-01-25T21:24:39.682Z,29.07
2019-01-25T21:27:08.089Z,31.80
2019-01-25T21:29:45.350Z,33.03
2019-01-25T21:32:17.309Z,31.63
2019-01-25T21:34:45.699Z,31.43
2019-01-25T21:37:14.110Z,31.63
2019-01-25T21:39:42.741Z,31.87
2019-01-25T21:42:13.604Z,31.53
2019-01-25T21:44:43.636Z,27.93
2019-01-25T21:47:16.625Z,31.50
2019-01-25T21:49:45.263Z,32.17
2019-01-25T21:52:16.016Z,30.87
2019-01-25T21:54:47.874Z,29.83
2019-01-25T21:57:20.630Z,31.90
2019-01-25T21:59:55.942Z,32.27
2019-01-25T22:02:36.261Z,31.97
2019-01-25T22:05:07.805Z,29.50
2019-01-25T22:07:39.372Z,30.70
2019-01-25T22:10:10.917Z,30.27
2019-01-25T22:12:49.105Z,33.30
2019-01-25T22:15:19.367Z,30.77
2019-01-25T22:17:48.085Z,33.00
2019-01-25T22:20:22.212Z,32.50
2019-01-25T22:22:52.317Z,32.27
2019-01-25T22:25:21.692Z,32.00
2019-01-25T22:27:58.254Z,31.67
2019-01-25T22:30:30.404Z,31.40
2019-01-25T22:33:10.582Z,30.47
2019-01-25T22:35:43.680Z,33.03
2019-01-25T22:38:12.060Z,29.53
2019-01-25T22:40:40.461Z,31.73
2019-01-25T22:43:08.861Z,31.50
2019-01-25T22:45:45.117Z,29.67
2019-01-25T22:48:19.669Z,32.33
2019-01-25T22:50:48.053Z,31.90
2019-01-25T22:53:16.461Z,32.73
2019-01-25T22:55:48.164Z,30.30
2019-01-25T22:58:16.577Z,30.33
2019-01-25T23:00:58.501Z,29.30
2019-01-25T23:03:35.577Z,31.20
2019-01-25T23:06:35.604Z,30.50
2019-01-25T23:09:09.993Z,29.93
2019-01-25T23:11:39.073Z,30.10
2019-01-25T23:14:09.145Z,29.93
2019-01-25T23:16:41.472Z,29.17
2019-01-25T23:19:10.807Z,29.53
2019-01-25T23:21:39.217Z,28.93
2019-01-25T23:24:09.561Z,28.47
2019-01-25T23:26:37.964Z,27.87
2019-01-25T23:29:06.388Z,29.87
2019-01-25T23:31:40.217Z,26.90
2019-01-25T23:34:11.373Z,26.23
2019-01-25T23:36:40.028Z,28.50
2019-01-25T23:39:12.832Z,26.93
2019-01-25T23:41:41.240Z,25.67
2019-01-25T23:44:18.709Z,26.37
2019-01-25T23:46:47.124Z,25.63
2019-01-25T23:49:15.638Z,27.53
2019-01-25T23:51:46.695Z,25.03
2019-01-25T23:54:17.744Z,26.47
2019-01-25T23:56:49.377Z,25.77
2019-01-25T23:59:20.460Z,26.17
